<?xml version="1.0" encoding="UTF-8" standalone="no" ?>
<gpx xmlns="http://www.topografix.com/GPX/1/1" xmlns:xsi="http://www.w3.org/2001/XMLSchema-instance" xsi:schemaLocation="http://www.topografix.com/GPX/1/1 http://www.topografix.com/GPX/1/1/gpx.xsd" version="1.1" creator="VisuGPX - https://www.visugpx.com">
  <metadata>
    <name>Raid 400 team - Trace de Marc</name>
    <desc><![CDATA[Le second raid d\'entrainement
]]></desc>
  </metadata>
  <trk>
    <name><![CDATA[Untitled]]></name>
    <trkseg>
      <trkpt lat="45.37593" lon="4.28667">
        <ele>493.600006</ele>
        <time>2012-09-30T06:01:16Z</time>
      </trkpt>
      <trkpt lat="45.376" lon="4.29228">
        <ele>579.799988</ele>
        <time>2012-09-30T07:07:10Z</time>
      </trkpt>
      <trkpt lat="45.37538" lon="4.29538">
        <ele>604.599976</ele>
        <time>2012-09-30T07:08:51Z</time>
      </trkpt>
      <trkpt lat="45.36462" lon="4.29879">
        <ele>735.400024</ele>
        <time>2012-09-30T07:18:17Z</time>
      </trkpt>
      <trkpt lat="45.36708" lon="4.30105">
        <ele>754.400024</ele>
        <time>2012-09-30T07:20:47Z</time>
      </trkpt>
      <trkpt lat="45.36019" lon="4.30313">
        <ele>818.599976</ele>
        <time>2012-09-30T07:26:38Z</time>
      </trkpt>
      <trkpt lat="45.3615" lon="4.30307">
        <ele>816.599976</ele>
        <time>2012-09-30T07:27:45Z</time>
      </trkpt>
      <trkpt lat="45.35479" lon="4.30673">
        <ele>836</ele>
        <time>2012-09-30T07:30:58Z</time>
      </trkpt>
      <trkpt lat="45.35979" lon="4.30632">
        <ele>787.599976</ele>
        <time>2012-09-30T07:33:46Z</time>
      </trkpt>
      <trkpt lat="45.36102" lon="4.3046">
        <ele>783.400024</ele>
        <time>2012-09-30T07:35:38Z</time>
      </trkpt>
      <trkpt lat="45.35719" lon="4.30615">
        <ele>819.200012</ele>
        <time>2012-09-30T07:38:32Z</time>
      </trkpt>
      <trkpt lat="45.34748" lon="4.31669">
        <ele>816.400024</ele>
        <time>2012-09-30T07:44:02Z</time>
      </trkpt>
      <trkpt lat="45.34737" lon="4.31507">
        <ele>810.400024</ele>
        <time>2012-09-30T07:44:34Z</time>
      </trkpt>
      <trkpt lat="45.34423" lon="4.317">
        <ele>771.200012</ele>
        <time>2012-09-30T07:45:42Z</time>
      </trkpt>
      <trkpt lat="45.34702" lon="4.32252">
        <ele>780.400024</ele>
        <time>2012-09-30T07:50:13Z</time>
      </trkpt>
      <trkpt lat="45.34363" lon="4.32521">
        <ele>854</ele>
        <time>2012-09-30T07:56:35Z</time>
      </trkpt>
      <trkpt lat="45.34123" lon="4.33167">
        <ele>854.400024</ele>
        <time>2012-09-30T07:58:22Z</time>
      </trkpt>
      <trkpt lat="45.34142" lon="4.33516">
        <ele>846.200012</ele>
        <time>2012-09-30T07:59:20Z</time>
      </trkpt>
      <trkpt lat="45.33758" lon="4.33582">
        <ele>897.799988</ele>
        <time>2012-09-30T08:03:37Z</time>
      </trkpt>
      <trkpt lat="45.33343" lon="4.33964">
        <ele>912.799988</ele>
        <time>2012-09-30T08:06:24Z</time>
      </trkpt>
      <trkpt lat="45.33284" lon="4.34184">
        <ele>900.400024</ele>
        <time>2012-09-30T08:07:25Z</time>
      </trkpt>
      <trkpt lat="45.33182" lon="4.34076">
        <ele>915.400024</ele>
        <time>2012-09-30T08:08:48Z</time>
      </trkpt>
      <trkpt lat="45.32509" lon="4.35011">
        <ele>915.200012</ele>
        <time>2012-09-30T08:12:58Z</time>
      </trkpt>
      <trkpt lat="45.32246" lon="4.35044">
        <ele>910.799988</ele>
        <time>2012-09-30T08:14:21Z</time>
      </trkpt>
      <trkpt lat="45.32112" lon="4.35336">
        <ele>927.799988</ele>
        <time>2012-09-30T08:16:40Z</time>
      </trkpt>
      <trkpt lat="45.32339" lon="4.35625">
        <ele>929.799988</ele>
        <time>2012-09-30T08:17:53Z</time>
      </trkpt>
      <trkpt lat="45.32261" lon="4.35865">
        <ele>918.200012</ele>
        <time>2012-09-30T08:18:22Z</time>
      </trkpt>
      <trkpt lat="45.32399" lon="4.36378">
        <ele>904.799988</ele>
        <time>2012-09-30T08:19:19Z</time>
      </trkpt>
      <trkpt lat="45.32309" lon="4.36642">
        <ele>887</ele>
        <time>2012-09-30T08:19:50Z</time>
      </trkpt>
      <trkpt lat="45.32389" lon="4.36943">
        <ele>908.400024</ele>
        <time>2012-09-30T08:21:56Z</time>
      </trkpt>
      <trkpt lat="45.32902" lon="4.37459">
        <ele>947.200012</ele>
        <time>2012-09-30T08:25:54Z</time>
      </trkpt>
      <trkpt lat="45.33152" lon="4.38168">
        <ele>932.200012</ele>
        <time>2012-09-30T08:28:00Z</time>
      </trkpt>
      <trkpt lat="45.32856" lon="4.38595">
        <ele>885.599976</ele>
        <time>2012-09-30T08:29:14Z</time>
      </trkpt>
      <trkpt lat="45.3308" lon="4.38778">
        <ele>892.400024</ele>
        <time>2012-09-30T08:30:17Z</time>
      </trkpt>
      <trkpt lat="45.32972" lon="4.39084">
        <ele>888.599976</ele>
        <time>2012-09-30T08:31:02Z</time>
      </trkpt>
      <trkpt lat="45.32735" lon="4.39185">
        <ele>916.400024</ele>
        <time>2012-09-30T08:33:19Z</time>
      </trkpt>
      <trkpt lat="45.32413" lon="4.39037">
        <ele>954.599976</ele>
        <time>2012-09-30T08:36:28Z</time>
      </trkpt>
      <trkpt lat="45.32121" lon="4.39173">
        <ele>977.599976</ele>
        <time>2012-09-30T08:38:48Z</time>
      </trkpt>
      <trkpt lat="45.31731" lon="4.39719">
        <ele>996.400024</ele>
        <time>2012-09-30T08:42:31Z</time>
      </trkpt>
      <trkpt lat="45.31894" lon="4.39889">
        <ele>998.400024</ele>
        <time>2012-09-30T08:43:34Z</time>
      </trkpt>
      <trkpt lat="45.32021" lon="4.40571">
        <ele>1001</ele>
        <time>2012-09-30T08:45:24Z</time>
      </trkpt>
      <trkpt lat="45.32281" lon="4.41172">
        <ele>1019.799988</ele>
        <time>2012-09-30T08:47:56Z</time>
      </trkpt>
      <trkpt lat="45.32253" lon="4.40825">
        <ele>1028.199951</ele>
        <time>2012-09-30T08:59:38Z</time>
      </trkpt>
      <trkpt lat="45.32387" lon="4.40777">
        <ele>1028.199951</ele>
        <time>2012-09-30T09:01:00Z</time>
      </trkpt>
      <trkpt lat="45.32457" lon="4.40385">
        <ele>1026.400024</ele>
        <time>2012-09-30T09:03:25Z</time>
      </trkpt>
      <trkpt lat="45.32312" lon="4.40896">
        <ele>1030.400024</ele>
        <time>2012-09-30T09:06:34Z</time>
      </trkpt>
      <trkpt lat="45.32419" lon="4.41079">
        <ele>1030.199951</ele>
        <time>2012-09-30T09:08:55Z</time>
      </trkpt>
      <trkpt lat="45.32926" lon="4.41008">
        <ele>957.400024</ele>
        <time>2012-09-30T09:15:44Z</time>
      </trkpt>
      <trkpt lat="45.32975" lon="4.41128">
        <ele>951.599976</ele>
        <time>2012-09-30T09:16:31Z</time>
      </trkpt>
      <trkpt lat="45.32663" lon="4.41898">
        <ele>955.200012</ele>
        <time>2012-09-30T09:21:53Z</time>
      </trkpt>
      <trkpt lat="45.32513" lon="4.41985">
        <ele>959.799988</ele>
        <time>2012-09-30T09:24:17Z</time>
      </trkpt>
      <trkpt lat="45.32427" lon="4.41864">
        <ele>976.599976</ele>
        <time>2012-09-30T09:26:21Z</time>
      </trkpt>
      <trkpt lat="45.32328" lon="4.41983">
        <ele>986.799988</ele>
        <time>2012-09-30T09:30:52Z</time>
      </trkpt>
      <trkpt lat="45.32144" lon="4.41616">
        <ele>1033.199951</ele>
        <time>2012-09-30T09:35:10Z</time>
      </trkpt>
      <trkpt lat="45.32279" lon="4.41166">
        <ele>1033.199951</ele>
        <time>2012-09-30T09:53:12Z</time>
      </trkpt>
      <trkpt lat="45.32649" lon="4.41821">
        <ele>967.200012</ele>
        <time>2012-09-30T09:57:25Z</time>
      </trkpt>
      <trkpt lat="45.32984" lon="4.41136">
        <ele>962</ele>
        <time>2012-09-30T09:59:34Z</time>
      </trkpt>
      <trkpt lat="45.3312" lon="4.40487">
        <ele>932.400024</ele>
        <time>2012-09-30T10:01:34Z</time>
      </trkpt>
      <trkpt lat="45.32852" lon="4.4005">
        <ele>922</ele>
        <time>2012-09-30T10:03:03Z</time>
      </trkpt>
      <trkpt lat="45.32831" lon="4.39788">
        <ele>915.400024</ele>
        <time>2012-09-30T10:05:04Z</time>
      </trkpt>
      <trkpt lat="45.33007" lon="4.39252">
        <ele>911</ele>
        <time>2012-09-30T10:06:34Z</time>
      </trkpt>
      <trkpt lat="45.32914" lon="4.39076">
        <ele>909.400024</ele>
        <time>2012-09-30T10:07:07Z</time>
      </trkpt>
      <trkpt lat="45.33038" lon="4.39012">
        <ele>901.799988</ele>
        <time>2012-09-30T10:07:33Z</time>
      </trkpt>
      <trkpt lat="45.3308" lon="4.38778">
        <ele>906</ele>
        <time>2012-09-30T10:08:13Z</time>
      </trkpt>
      <trkpt lat="45.32671" lon="4.38207">
        <ele>911.599976</ele>
        <time>2012-09-30T10:11:25Z</time>
      </trkpt>
      <trkpt lat="45.32783" lon="4.38302">
        <ele>928.200012</ele>
        <time>2012-09-30T10:13:26Z</time>
      </trkpt>
      <trkpt lat="45.33154" lon="4.37549">
        <ele>967.599976</ele>
        <time>2012-09-30T10:19:20Z</time>
      </trkpt>
      <trkpt lat="45.33719" lon="4.36812">
        <ele>961.200012</ele>
        <time>2012-09-30T10:22:46Z</time>
      </trkpt>
      <trkpt lat="45.33747" lon="4.36052">
        <ele>948.799988</ele>
        <time>2012-09-30T10:24:24Z</time>
      </trkpt>
      <trkpt lat="45.33938" lon="4.35675">
        <ele>937.599976</ele>
        <time>2012-09-30T10:25:40Z</time>
      </trkpt>
      <trkpt lat="45.34878" lon="4.34923">
        <ele>879.400024</ele>
        <time>2012-09-30T10:29:06Z</time>
      </trkpt>
      <trkpt lat="45.35211" lon="4.34077">
        <ele>891.599976</ele>
        <time>2012-09-30T10:33:18Z</time>
      </trkpt>
      <trkpt lat="45.35047" lon="4.33957">
        <ele>882.200012</ele>
        <time>2012-09-30T10:33:53Z</time>
      </trkpt>
      <trkpt lat="45.34822" lon="4.3402">
        <ele>863.200012</ele>
        <time>2012-09-30T10:34:27Z</time>
      </trkpt>
      <trkpt lat="45.34798" lon="4.33873">
        <ele>862</ele>
        <time>2012-09-30T10:35:09Z</time>
      </trkpt>
      <trkpt lat="45.3459" lon="4.3392">
        <ele>880.599976</ele>
        <time>2012-09-30T10:37:00Z</time>
      </trkpt>
      <trkpt lat="45.34241" lon="4.33696">
        <ele>851.599976</ele>
        <time>2012-09-30T10:39:11Z</time>
      </trkpt>
      <trkpt lat="45.34123" lon="4.33166">
        <ele>858</ele>
        <time>2012-09-30T10:41:07Z</time>
      </trkpt>
      <trkpt lat="45.3435" lon="4.32549">
        <ele>853.799988</ele>
        <time>2012-09-30T10:43:09Z</time>
      </trkpt>
      <trkpt lat="45.34693" lon="4.32265">
        <ele>786.200012</ele>
        <time>2012-09-30T10:45:08Z</time>
      </trkpt>
      <trkpt lat="45.34407" lon="4.3174">
        <ele>775</ele>
        <time>2012-09-30T10:50:31Z</time>
      </trkpt>
      <trkpt lat="45.34144" lon="4.31748">
        <ele>816.400024</ele>
        <time>2012-09-30T10:54:59Z</time>
      </trkpt>
      <trkpt lat="45.33938" lon="4.31445">
        <ele>857</ele>
        <time>2012-09-30T10:59:01Z</time>
      </trkpt>
      <trkpt lat="45.34003" lon="4.31177">
        <ele>857</ele>
        <time>2012-09-30T11:01:29Z</time>
      </trkpt>
      <trkpt lat="45.34398" lon="4.30785">
        <ele>848</ele>
        <time>2012-09-30T11:03:59Z</time>
      </trkpt>
      <trkpt lat="45.34012" lon="4.30088">
        <ele>809.200012</ele>
        <time>2012-09-30T11:05:59Z</time>
      </trkpt>
      <trkpt lat="45.34555" lon="4.29285">
        <ele>799.200012</ele>
        <time>2012-09-30T11:09:34Z</time>
      </trkpt>
      <trkpt lat="45.3458" lon="4.28939">
        <ele>803.400024</ele>
        <time>2012-09-30T11:12:20Z</time>
      </trkpt>
      <trkpt lat="45.34718" lon="4.28795">
        <ele>820.400024</ele>
        <time>2012-09-30T11:14:57Z</time>
      </trkpt>
      <trkpt lat="45.34764" lon="4.29455">
        <ele>843.599976</ele>
        <time>2012-09-30T11:17:59Z</time>
      </trkpt>
      <trkpt lat="45.35015" lon="4.29095">
        <ele>840.799988</ele>
        <time>2012-09-30T11:19:18Z</time>
      </trkpt>
      <trkpt lat="45.3589" lon="4.2866">
        <ele>724.400024</ele>
        <time>2012-09-30T11:25:47Z</time>
      </trkpt>
      <trkpt lat="45.35604" lon="4.29294">
        <ele>736.799988</ele>
        <time>2012-09-30T11:32:08Z</time>
      </trkpt>
      <trkpt lat="45.36336" lon="4.28809">
        <ele>612.200012</ele>
        <time>2012-09-30T11:44:27Z</time>
      </trkpt>
      <trkpt lat="45.36565" lon="4.28406">
        <ele>579.200012</ele>
        <time>2012-09-30T11:47:07Z</time>
      </trkpt>
      <trkpt lat="45.3723" lon="4.29016">
        <ele>608.200012</ele>
        <time>2012-09-30T11:54:32Z</time>
      </trkpt>
      <trkpt lat="45.37225" lon="4.29225">
        <ele>599.400024</ele>
        <time>2012-09-30T11:54:55Z</time>
      </trkpt>
      <trkpt lat="45.37376" lon="4.29274">
        <ele>595</ele>
        <time>2012-09-30T11:55:22Z</time>
      </trkpt>
      <trkpt lat="45.37572" lon="4.29075">
        <ele>607.799988</ele>
        <time>2012-09-30T11:56:40Z</time>
      </trkpt>
      <trkpt lat="45.37605" lon="4.28667">
        <ele>592.599976</ele>
        <time>2012-09-30T12:12:47Z</time>
      </trkpt>
    </trkseg>
  </trk>
</gpx>